Time;durP1;ratioP1;P1;durP2;ratioP2;P2;SDS_P1;SDS_P2;PMS_P1;PMS_P2;Temp;Humidity;BMP_temperature;BMP_pressure;BME280_temperature;BME280_humidity;BME280_pressure;Samples;Min_cycle;Max_cycle;Signal;HPM_P1;HPM_P2
2022/08/01 00:01:02;;;;;;;;;;;27.20;36.30;;;25.20;37.96;100761.28;12245629;19;19926;-89
2022/08/01 00:05:08;;;;;;;;;;;27.30;36.40;;;25.20;38.55;100755.94;12245497;19;20294;-89
2022/08/01 00:09:09;;;;;;;;;;;27.20;36.20;;;25.36;37.84;100793.22;12242870;19;19927;-89
2022/08/01 00:13:14;;;;;;;;;;;27.10;36.40;;;25.07;38.24;100757.31;12243970;19;19936;-89
2022/08/01 00:17:16;;;;;;;;;;;27.20;36.60;;;25.38;38.37;100801.88;12241971;19;19923;-89
2022/08/01 00:21:17;;;;;;;;;;;27.40;36.60;;;25.26;38.54;100776.59;12242349;19;19922;-89
2022/08/01 00:25:19;;;;;;;;;;;27.10;36.50;;;25.35;38.61;100779.00;12244214;19;19918;-89
2022/08/01 00:29:20;;;;;;;;;;;27.10;36.60;;;25.33;38.42;100785.53;12240310;19;19975;-89
2022/08/01 00:33:22;;;;;;;;;;;27.20;36.70;;;25.31;38.19;100806.28;12244807;19;19915;-90
2022/08/01 00:37:24;;;;;;;;;;;27.00;36.60;;;25.29;38.21;100802.97;12252479;19;19927;-90
2022/08/01 00:41:25;;;;;;;;;;;27.00;36.60;;;25.31;38.32;100811.63;12255379;19;19935;-89
2022/08/01 00:45:27;;;;;;;;;;;27.00;36.70;;;25.31;38.49;100823.16;12255560;19;19939;-90
2022/08/01 00:49:28;;;;;;;;;;;26.90;36.70;;;25.14;38.08;100802.84;12250779;19;19927;-90
2022/08/01 00:53:30;;;;;;;;;;;26.90;36.70;;;24.65;38.60;100726.53;12256255;19;19922;-90
2022/08/01 00:57:32;;;;;;;;;;;26.90;36.80;;;25.16;38.46;100815.06;12254165;19;19933;-89
2022/08/01 01:01:34;;;;;;;;;;;26.90;36.90;;;24.80;38.98;100768.53;12254376;19;19918;-91
2022/08/01 01:05:51;;;;;;;;;;;26.80;37.00;;;24.52;38.80;100731.66;12248919;19;19924;-90
2022/08/01 01:09:57;;;;;;;;;;;26.80;36.90;;;25.03;38.48;100811.28;12249791;19;19915;-89
2022/08/01 01:14:08;;;;;;;;;;;26.80;36.90;;;25.07;38.61;100818.78;12254972;19;19915;-90
2022/08/01 01:18:17;;;;;;;;;;;26.70;36.90;;;25.03;39.06;100803.28;12252485;19;19923;-89
2022/08/01 01:22:40;;;;;;;;;;;26.70;37.10;;;24.46;38.93;100725.16;12251730;19;20326;-89
2022/08/01 01:27:25;;;;;;;;;;;26.70;37.00;;;24.87;39.03;100804.22;12254189;19;20206;-89
2022/08/01 01:31:28;;;;;;;;;;;26.60;37.20;;;24.84;38.79;100800.03;12250085;19;20329;-90
2022/08/01 01:35:32;;;;;;;;;;;26.50;37.10;;;24.92;39.16;100817.88;12252851;19;19922;-90
2022/08/01 01:39:35;;;;;;;;;;;26.50;37.40;;;24.90;39.26;100801.22;12249151;19;19970;-89
2022/08/01 01:43:37;;;;;;;;;;;26.50;37.30;;;24.83;39.11;100797.56;12248946;19;20318;-90
2022/08/01 01:47:39;;;;;;;;;;;26.50;37.40;;;24.62;39.37;100753.59;12248929;19;19939;-90
2022/08/01 01:51:42;;;;;;;;;;;26.50;37.50;;;24.82;39.38;100777.22;12251821;19;19982;-91
2022/08/01 01:55:46;;;;;;;;;;;26.50;37.50;;;24.87;39.40;100783.69;12251899;19;19970;-90
2022/08/01 01:59:49;;;;;;;;;;;26.70;37.60;;;24.93;39.61;100790.16;12245759;19;20345;-91
2022/08/01 02:03:53;;;;;;;;;;;26.60;37.50;;;24.91;39.33;100787.66;12247604;19;19934;-90
2022/08/01 02:07:55;;;;;;;;;;;26.60;37.60;;;24.97;39.32;100801.31;12248247;19;19926;-90
2022/08/01 02:11:58;;;;;;;;;;;26.50;37.60;;;24.95;39.35;100805.00;12251490;19;19930;-91
2022/08/01 02:16:00;;;;;;;;;;;26.60;37.70;;;24.81;39.24;100778.22;12249293;19;19915;-91
2022/08/01 02:20:02;;;;;;;;;;;26.50;37.60;;;24.66;39.44;100756.78;12245599;19;19985;-89
2022/08/01 02:24:14;;;;;;;;;;;26.60;37.70;;;24.85;39.32;100804.41;12247719;19;19919;-90
2022/08/01 02:28:28;;;;;;;;;;;26.60;37.80;;;24.78;39.45;100794.59;12246121;19;20425;-90
2022/08/01 02:32:49;;;;;;;;;;;26.50;37.70;;;24.84;39.75;100802.72;12241643;19;19911;-89
2022/08/01 02:36:52;;;;;;;;;;;26.50;37.70;;;24.81;39.96;100808.41;12245046;19;19919;-89
2022/08/01 02:40:57;;;;;;;;;;;26.50;37.80;;;24.54;40.03;100759.00;12249319;19;20369;-91
2022/08/01 02:45:00;;;;;;;;;;;26.40;37.70;;;24.76;39.67;100804.59;12249517;19;19919;-90
2022/08/01 02:49:03;;;;;;;;;;;26.40;37.70;;;24.45;39.72;100763.56;12247717;19;19907;-90
2022/08/01 02:53:06;;;;;;;;;;;26.50;37.90;;;24.69;39.77;100808.00;12249438;19;19918;-91
2022/08/01 02:57:08;;;;;;;;;;;26.40;37.90;;;24.65;39.90;100830.69;12246680;19;19931;-89
2022/08/01 03:01:10;;;;;;;;;;;26.30;37.90;;;24.18;39.96;100758.66;12248584;19;19915;-89
2022/08/01 03:05:13;;;;;;;;;;;26.30;37.90;;;24.16;39.79;100757.97;12247930;19;19925;-90
2022/08/01 03:09:16;;;;;;;;;;;26.20;38.00;;;24.36;40.04;100804.63;12245294;19;19922;-90
2022/08/01 03:13:18;;;;;;;;;;;26.20;38.10;;;24.28;40.19;100797.47;12246562;19;20358;-90
2022/08/01 03:17:22;;;;;;;;;;;26.10;38.10;;;24.06;40.13;100766.16;12245856;19;19919;-88
2022/08/01 03:21:25;;;;;;;;;;;26.10;38.10;;;24.25;40.15;100803.16;12255267;19;19956;-88
2022/08/01 03:25:27;;;;;;;;;;;26.00;38.20;;;24.19;40.00;100808.34;12249469;19;20344;-87
2022/08/01 03:29:29;;;;;;;;;;;26.00;38.30;;;23.85;40.46;100756.91;12244727;19;19918;-87
2022/08/01 03:33:31;;;;;;;;;;;25.90;38.30;;;24.22;40.50;100813.31;12249304;19;19915;-87
2022/08/01 03:37:41;;;;;;;;;;;25.90;38.30;;;23.79;40.31;100743.41;12244916;19;19922;-87
2022/08/01 03:41:46;;;;;;;;;;;25.90;38.40;;;24.28;40.12;100826.00;12247557;19;19915;-88
2022/08/01 03:45:53;;;;;;;;;;;25.90;38.50;;;24.12;40.26;100812.72;12244382;19;21356;-87
2022/08/01 03:49:56;;;;;;;;;;;25.90;38.50;;;24.15;40.38;100834.53;12242726;19;19923;-88
2022/08/01 03:54:00;;;;;;;;;;;25.80;38.40;;;23.96;40.46;100809.06;12247506;19;19934;-88
2022/08/01 03:58:02;;;;;;;;;;;25.80;38.60;;;24.06;40.74;100830.19;12245902;19;19918;-87
2022/08/01 04:02:06;;;;;;;;;;;25.80;38.60;;;24.10;40.62;100842.22;12246663;19;19914;-87
2022/08/01 04:06:10;;;;;;;;;;;25.80;38.60;;;24.01;40.67;100833.41;12246122;19;19919;-87
2022/08/01 04:10:12;;;;;;;;;;;25.70;38.60;;;24.02;40.60;100837.72;12243738;19;19921;-88
2022/08/01 04:14:14;;;;;;;;;;;25.70;38.80;;;24.01;40.58;100824.56;12247053;19;19979;-86
2022/08/01 04:18:15;;;;;;;;;;;25.80;38.90;;;23.99;40.97;100826.56;12244875;19;19944;-87
2022/08/01 04:22:17;;;;;;;;;;;25.80;38.90;;;23.98;40.56;100831.09;12245801;19;19936;-87
2022/08/01 04:26:21;;;;;;;;;;;25.80;39.00;;;23.88;40.92;100816.25;12246639;19;19926;-87
2022/08/01 04:30:27;;;;;;;;;;;25.70;39.00;;;23.97;41.01;100841.91;12239516;19;19978;-88
2022/08/01 04:34:30;;;;;;;;;;;25.70;39.00;;;23.92;41.16;100839.75;12246367;19;19927;-88
2022/08/01 04:38:36;;;;;;;;;;;25.70;39.10;;;24.01;41.08;100837.91;12242864;19;19911;-88
2022/08/01 04:42:38;;;;;;;;;;;25.70;39.10;;;23.90;41.27;100817.75;12243600;19;20252;-88
2022/08/01 04:46:40;;;;;;;;;;;25.70;39.20;;;24.11;41.11;100838.53;12244609;19;19933;-88
2022/08/01 04:50:42;;;;;;;;;;;25.70;39.30;;;23.99;40.98;100827.41;12241079;19;19974;-89
2022/08/01 04:54:43;;;;;;;;;;;25.70;39.30;;;23.64;41.22;100777.91;12244972;19;19968;-88
2022/08/01 04:58:45;;;;;;;;;;;25.70;39.40;;;24.03;41.53;100846.56;12242226;19;19931;-87
2022/08/01 05:02:46;;;;;;;;;;;25.80;39.40;;;24.00;41.18;100849.56;12242822;19;19943;-88
2022/08/01 05:06:48;;;;;;;;;;;25.70;39.50;;;23.91;41.37;100831.91;12243842;19;19932;-87
2022/08/01 05:10:49;;;;;;;;;;;26.00;39.70;;;23.90;41.38;100832.91;12242007;19;19974;-87
2022/08/01 05:14:51;;;;;;;;;;;25.70;39.50;;;23.96;41.61;100840.25;12243612;19;19950;-86
2022/08/01 05:18:53;;;;;;;;;;;25.80;39.60;;;23.91;41.29;100834.59;12238160;19;19922;-87
2022/08/01 05:22:54;;;;;;;;;;;25.70;39.50;;;23.99;41.30;100859.41;12248853;19;19927;-87
2022/08/01 05:26:56;;;;;;;;;;;25.70;39.60;;;23.91;41.46;100855.94;12254650;19;19984;-86
2022/08/01 05:30:58;;;;;;;;;;;25.70;39.80;;;23.91;41.81;100858.59;12255978;19;20019;-87
2022/08/01 05:34:59;;;;;;;;;;;25.70;39.90;;;23.85;41.67;100854.78;12254762;19;19935;-87
2022/08/01 05:39:01;;;;;;;;;;;25.60;39.80;;;23.69;41.94;100833.41;12251472;19;19911;-88
2022/08/01 05:43:03;;;;;;;;;;;25.60;39.80;;;23.45;41.79;100808.44;12254285;19;19935;-85
2022/08/01 05:47:04;;;;;;;;;;;25.60;39.90;;;23.68;41.89;100853.88;12253413;19;19929;-87
2022/08/01 05:51:06;;;;;;;;;;;25.50;40.20;;;23.35;42.19;100818.41;12254210;19;19906;-89
2022/08/01 05:55:09;;;;;;;;;;;25.50;40.30;;;23.60;42.33;100873.41;12254388;19;19919;-89
2022/08/01 05:59:10;;;;;;;;;;;25.40;40.90;;;23.54;42.11;100863.41;12251967;19;19918;-87
2022/08/01 06:03:12;;;;;;;;;;;25.40;40.50;;;23.10;42.29;100805.06;12250740;19;20024;-88
2022/08/01 06:07:14;;;;;;;;;;;25.30;40.50;;;23.64;42.26;100884.56;12253971;19;20253;-87
2022/08/01 06:11:15;;;;;;;;;;;25.30;40.70;;;23.62;42.77;100887.41;12253467;19;19919;-87
2022/08/01 06:15:17;;;;;;;;;;;25.30;40.90;;;23.55;42.57;100877.59;12251612;19;20255;-87
2022/08/01 06:19:18;;;;;;;;;;;25.30;40.70;;;23.55;42.44;100882.91;12249124;19;19951;-87
2022/08/01 06:23:21;;;;;;;;;;;25.30;40.90;;;23.63;42.43;100885.59;12251633;19;19914;-86
2022/08/01 06:27:24;;;;;;;;;;;25.50;41.10;;;23.45;42.68;100842.25;12251392;19;20001;-87
2022/08/01 06:31:26;;;;;;;;;;;25.40;41.10;;;23.82;42.87;100892.44;12253694;19;20253;-88
2022/08/01 06:35:29;;;;;;;;;;;25.40;41.40;;;23.86;42.62;100896.44;12249702;19;19944;-89
2022/08/01 06:39:31;;;;;;;;;;;25.50;41.10;;;23.84;42.82;100901.09;12246006;19;19915;-88
2022/08/01 06:43:32;;;;;;;;;;;25.50;41.20;;;23.82;43.13;100887.94;12245074;19;19933;-87
2022/08/01 06:47:34;;;;;;;;;;;25.50;41.20;;;23.92;43.15;100903.75;12249356;19;19949;-88
2022/08/01 06:51:36;;;;;;;;;;;25.50;41.20;;;23.72;43.02;100855.28;12249738;19;19915;-87
2022/08/01 06:55:38;;;;;;;;;;;25.60;41.00;;;23.99;42.78;100885.25;12251038;19;19930;-86
2022/08/01 06:59:39;;;;;;;;;;;25.60;41.50;;;23.99;43.12;100878.09;12247007;19;20377;-88
2022/08/01 07:03:41;;;;;;;;;;;25.70;41.50;;;23.99;43.39;100879.94;12249068;19;19925;-87
2022/08/01 07:07:43;;;;;;;;;;;25.70;41.50;;;23.89;43.00;100861.41;12247941;19;20250;-87
2022/08/01 07:11:45;;;;;;;;;;;25.80;41.40;;;24.02;42.79;100879.59;12250611;19;19910;-87
2022/08/01 07:15:47;;;;;;;;;;;25.80;41.40;;;24.11;43.37;100888.41;12248179;19;20348;-87
2022/08/01 07:19:48;;;;;;;;;;;25.80;41.40;;;24.18;43.24;100903.56;12244912;19;20381;-87
2022/08/01 07:23:49;;;;;;;;;;;26.00;41.50;;;24.17;43.34;100904.59;12247826;19;19955;-88
2022/08/01 07:27:51;;;;;;;;;;;25.80;41.50;;;23.72;43.40;100841.13;12247796;19;19940;-87
2022/08/01 07:31:54;;;;;;;;;;;25.90;41.70;;;24.02;43.36;100890.25;12248680;19;20281;-89
2022/08/01 07:35:56;;;;;;;;;;;25.80;41.60;;;24.05;43.43;100904.09;12247570;19;19930;-86
2022/08/01 07:39:57;;;;;;;;;;;25.80;41.60;;;24.12;43.82;100901.59;12244410;19;19918;-88
2022/08/01 07:43:58;;;;;;;;;;;25.80;41.80;;;24.15;43.85;100898.59;12243831;19;19922;-88
2022/08/01 07:48:06;;;;;;;;;;;25.80;41.80;;;24.32;43.96;100907.38;12247043;19;19918;-89
2022/08/01 07:52:08;;;;;;;;;;;25.90;42.60;;;24.27;43.61;100897.22;12247761;19;19919;-87
2022/08/01 07:56:10;;;;;;;;;;;25.90;41.90;;;24.13;43.40;100859.72;12246889;19;19926;-87
2022/08/01 08:00:12;;;;;;;;;;;26.00;41.90;;;24.47;43.60;100916.41;12243971;19;19914;-88
2022/08/01 08:04:14;;;;;;;;;;;26.00;41.80;;;24.46;43.99;100913.88;12246302;19;19926;-87
2022/08/01 08:08:17;;;;;;;;;;;26.10;42.00;;;24.32;43.78;100883.38;12245695;19;19918;-88
2022/08/01 08:12:19;;;;;;;;;;;26.10;41.70;;;24.43;43.89;100903.53;12249087;19;19907;-88
2022/08/01 08:16:21;;;;;;;;;;;26.30;42.10;;;24.49;43.86;100908.19;12249485;19;19919;-89
2022/08/01 08:20:24;;;;;;;;;;;26.30;42.00;;;24.59;43.74;100922.19;12244647;19;19923;-88
2022/08/01 08:24:27;;;;;;;;;;;26.20;41.90;;;24.56;43.83;100927.88;12246834;19;20558;-87
2022/08/01 08:28:28;;;;;;;;;;;26.30;41.80;;;24.51;43.81;100924.88;12244965;19;19915;-86
2022/08/01 08:32:30;;;;;;;;;;;26.20;41.80;;;24.56;43.98;100943.91;12248661;19;19911;-87
2022/08/01 08:36:31;;;;;;;;;;;26.30;41.80;;;24.46;44.40;100928.06;12247881;19;19922;-89
2022/08/01 08:40:35;;;;;;;;;;;26.20;41.80;;;24.46;43.84;100933.41;12242910;19;20610;-88
2022/08/01 08:44:38;;;;;;;;;;;26.20;41.80;;;24.41;44.17;100917.06;12243279;19;19942;-87
2022/08/01 08:48:40;;;;;;;;;;;26.20;42.00;;;24.57;43.83;100950.06;12245157;19;19919;-85
2022/08/01 08:52:43;;;;;;;;;;;26.20;41.90;;;24.59;43.88;100948.91;12245511;19;19923;-87
2022/08/01 08:56:45;;;;;;;;;;;26.20;41.60;;;24.59;44.34;100948.06;12249765;19;20002;-86
2022/08/01 09:00:47;;;;;;;;;;;26.60;41.90;;;24.27;43.82;100902.53;12253254;19;19910;-87
2022/08/01 09:04:50;;;;;;;;;;;26.30;41.70;;;24.42;44.10;100937.41;12252126;19;19923;-89
2022/08/01 09:08:51;;;;;;;;;;;26.50;41.80;;;24.48;43.95;100962.63;12254673;19;19943;-88
2022/08/01 09:13:05;;;;;;;;;;;26.20;41.60;;;24.39;44.36;100958.28;12257098;19;19919;-86
2022/08/01 09:17:10;;;;;;;;;;;26.20;41.50;;;24.43;44.07;100970.25;12258293;19;19918;-88
2022/08/01 09:21:14;;;;;;;;;;;26.20;41.70;;;24.43;44.59;100968.41;12259247;19;20003;-88
2022/08/01 09:25:15;;;;;;;;;;;26.10;41.80;;;24.45;44.18;100962.97;12259614;19;19919;-89
2022/08/01 09:29:19;;;;;;;;;;;26.10;41.70;;;24.51;44.14;100967.63;12255903;19;19917;-87
2022/08/01 09:33:21;;;;;;;;;;;26.30;42.00;;;24.23;44.23;100900.41;12259020;19;20329;-88
2022/08/01 09:37:30;;;;;;;;;;;26.10;41.80;;;24.77;44.56;100986.09;12253408;19;20375;-88
2022/08/01 09:41:31;;;;;;;;;;;26.30;42.00;;;24.82;44.17;100982.91;12257997;19;20346;-88
2022/08/01 09:45:34;;;;;;;;;;;26.40;41.90;;;24.84;44.58;100968.34;12258956;19;19922;-89
2022/08/01 09:49:38;;;;;;;;;;;26.50;41.90;;;24.93;44.11;100980.69;12250126;19;19922;-87
2022/08/01 09:53:42;;;;;;;;;;;26.60;42.00;;;24.83;44.47;100965.88;12256156;19;19907;-88
2022/08/01 09:57:55;;;;;;;;;;;26.60;41.80;;;24.75;44.39;100955.22;12256533;19;19911;-89
2022/08/01 10:01:56;;;;;;;;;;;26.60;41.40;;;25.01;44.11;101006.56;12254504;19;19930;-88
2022/08/01 10:05:58;;;;;;;;;;;26.70;41.50;;;25.00;44.30;101006.72;12257247;19;19918;-88
2022/08/01 10:10:11;;;;;;;;;;;26.70;41.40;;;24.87;44.46;100994.75;12253131;19;19979;-89
2022/08/01 10:14:14;;;;;;;;;;;26.70;41.40;;;24.87;44.74;100999.22;12256206;19;19915;-88
2022/08/01 10:18:16;;;;;;;;;;;26.70;41.40;;;24.89;44.04;101005.25;12254756;19;19922;-88
2022/08/01 10:22:18;;;;;;;;;;;26.60;41.40;;;24.50;44.28;100928.56;12253800;19;19917;-87
2022/08/01 10:26:19;;;;;;;;;;;26.60;41.50;;;25.02;44.43;101013.56;12255651;19;19911;-87
2022/08/01 10:30:21;;;;;;;;;;;26.60;41.50;;;24.87;44.75;100977.84;12251720;19;19911;-88
2022/08/01 10:34:23;;;;;;;;;;;26.70;41.00;;;25.00;44.08;100994.19;12254143;19;20234;-88
2022/08/01 10:38:27;;;;;;;;;;;26.70;41.30;;;24.95;44.33;100996.53;12252586;19;20334;-89
2022/08/01 10:42:28;;;;;;;;;;;26.90;41.90;;;25.00;44.35;101010.22;12253857;19;19907;-88
2022/08/01 10:46:30;;;;;;;;;;;26.80;41.50;;;24.98;44.66;101011.41;12255076;19;19907;-88
2022/08/01 10:50:39;;;;;;;;;;;26.70;41.40;;;25.01;44.42;101019.91;12249874;19;19944;-88
2022/08/01 10:54:41;;;;;;;;;;;26.70;41.30;;;24.96;44.13;101006.25;12251184;19;19985;-88
2022/08/01 10:58:44;;;;;;;;;;;26.70;41.50;;;24.97;44.75;101007.91;12245904;19;19922;-88
2022/08/01 11:02:58;;;;;;;;;;;26.70;41.40;;;25.06;44.22;101022.91;12250183;19;19937;-87
2022/08/01 11:07:07;;;;;;;;;;;26.70;41.40;;;25.14;44.43;101038.91;12249779;19;19939;-87
2022/08/01 11:11:08;;;;;;;;;;;26.70;41.60;;;25.11;44.27;101036.59;12250248;19;19923;-87
2022/08/01 11:15:09;;;;;;;;;;;26.70;41.20;;;25.15;44.24;101039.78;12251212;19;19919;-86
2022/08/01 11:19:11;;;;;;;;;;;26.80;41.80;;;25.05;44.67;101023.06;12247825;19;19940;-87
2022/08/01 11:23:16;;;;;;;;;;;26.80;41.80;;;25.13;44.17;101044.44;12249143;19;19919;-86
2022/08/01 11:27:24;;;;;;;;;;;26.80;41.50;;;25.14;44.58;101036.25;12249902;19;19923;-88
2022/08/01 11:31:28;;;;;;;;;;;26.80;41.50;;;25.27;44.44;101053.59;12249552;19;20380;-87
2022/08/01 11:35:29;;;;;;;;;;;26.80;41.70;;;25.33;44.71;101055.56;12250556;19;20326;-86
2022/08/01 11:39:31;;;;;;;;;;;26.90;41.70;;;25.22;44.19;101034.56;12249686;19;19922;-87
2022/08/01 11:43:33;;;;;;;;;;;26.90;41.60;;;25.04;44.42;101006.22;12247566;19;19914;-86
2022/08/01 11:47:51;;;;;;;;;;;27.10;41.60;;;25.30;44.45;101047.91;12248058;19;20320;-87
2022/08/01 11:52:11;;;;;;;;;;;27.00;41.60;;;25.36;44.63;101057.91;12250266;19;19939;-89
2022/08/01 11:56:12;;;;;;;;;;;27.00;41.60;;;25.44;44.34;101057.88;12248862;19;19903;-87
2022/08/01 12:00:19;;;;;;;;;;;27.00;41.60;;;25.31;44.32;101038.88;12246230;19;19923;-87
2022/08/01 12:04:20;;;;;;;;;;;27.10;41.60;;;25.45;44.17;101056.88;12243175;19;19947;-88
2022/08/01 12:08:26;;;;;;;;;;;27.10;41.70;;;25.39;44.30;101053.06;12246110;19;20008;-87
2022/08/01 12:12:29;;;;;;;;;;;27.10;41.60;;;25.37;44.32;101070.28;12246335;19;19923;-88
2022/08/01 12:16:32;;;;;;;;;;;27.30;41.80;;;25.23;44.23;101071.81;12244772;19;19911;-86
2022/08/01 12:20:38;;;;;;;;;;;27.10;41.50;;;25.22;44.17;101088.03;12241337;19;19919;-88
2022/08/01 12:24:42;;;;;;;;;;;27.00;41.60;;;25.01;44.63;101089.41;12242398;19;19978;-85
2022/08/01 12:28:43;;;;;;;;;;;26.90;41.70;;;24.91;44.69;101091.41;12243415;19;19930;-87
2022/08/01 12:32:46;;;;;;;;;;;26.80;41.80;;;24.75;45.03;101075.41;12254961;19;19926;-87
2022/08/01 12:36:48;;;;;;;;;;;26.70;42.00;;;24.59;45.14;101053.06;12254956;19;19922;-85
2022/08/01 12:40:49;;;;;;;;;;;26.60;42.00;;;24.88;44.92;101081.91;12255475;19;20599;-86
2022/08/01 12:44:52;;;;;;;;;;;26.60;42.30;;;24.85;45.04;101066.22;12248257;19;19918;-87
2022/08/01 12:48:54;;;;;;;;;;;26.60;42.30;;;25.05;44.77;101087.22;12252293;19;19918;-86
2022/08/01 12:52:56;;;;;;;;;;;26.70;42.20;;;25.20;44.96;101080.19;12255302;19;19953;-88
2022/08/01 12:56:58;;;;;;;;;;;26.70;42.40;;;24.92;44.89;101028.94;12255909;19;19954;-87
2022/08/01 13:01:05;;;;;;;;;;;26.80;42.70;;;25.37;45.02;101089.81;12256791;19;19910;-87
2022/08/01 13:05:09;;;;;;;;;;;26.90;42.10;;;25.47;45.01;101094.16;12249741;19;19946;-89
2022/08/01 13:09:12;;;;;;;;;;;27.00;42.10;;;25.44;44.71;101092.66;12253128;19;19921;-88
2022/08/01 13:13:16;;;;;;;;;;;27.00;41.90;;;25.39;44.88;101097.69;12254641;19;20273;-87
2022/08/01 13:17:35;;;;;;;;;;;27.10;42.50;;;25.36;44.47;101100.69;12255898;19;19922;-87
2022/08/01 13:21:37;;;;;;;;;;;27.10;42.10;;;25.15;44.91;101072.69;12254269;19;20265;-90
2022/08/01 13:25:52;;;;;;;;;;;27.00;42.50;;;25.29;45.00;101099.72;12255831;19;19914;-89
2022/08/01 13:30:09;;;;;;;;;;;27.00;42.50;;;25.28;45.12;101098.06;12249203;19;19943;-87
2022/08/01 13:34:11;;;;;;;;;;;27.00;42.60;;;25.30;45.14;101096.88;12253825;19;20234;-88
2022/08/01 13:38:13;;;;;;;;;;;27.00;42.80;;;24.88;44.91;101011.59;12252533;19;19923;-87
2022/08/01 13:42:15;;;;;;;;;;;26.90;43.00;;;25.34;45.09;101084.00;12246927;19;19922;-92
2022/08/01 13:46:18;;;;;;;;;;;27.00;43.30;;;25.36;45.19;101082.81;12258227;19;20249;-90
2022/08/01 13:50:19;;;;;;;;;;;27.30;42.70;;;25.22;45.39;101059.47;12251204;19;20334;-90
2022/08/01 13:54:21;;;;;;;;;;;27.00;42.60;;;25.19;45.32;101034.91;12250428;19;19914;-88
2022/08/01 13:58:23;;;;;;;;;;;27.30;42.80;;;25.22;45.39;101035.41;12247454;19;20253;-89
2022/08/01 14:02:26;;;;;;;;;;;27.20;42.70;;;25.61;45.45;101102.25;12249954;19;19949;-90
2022/08/01 14:06:28;;;;;;;;;;;27.20;42.60;;;25.30;45.18;101043.41;12257943;19;19918;-92
2022/08/01 14:10:30;;;;;;;;;;;27.30;42.50;;;25.40;44.61;101061.91;12250905;19;19987;-91
2022/08/01 14:14:31;;;;;;;;;;;27.30;42.80;;;25.37;45.39;101064.94;12253355;19;19921;-90
2022/08/01 14:18:33;;;;;;;;;;;27.40;42.60;;;25.53;45.21;101094.28;12253977;19;19918;-92
2022/08/01 14:22:35;;;;;;;;;;;27.30;42.60;;;25.44;45.15;101073.06;12250114;19;20354;-91
2022/08/01 14:26:36;;;;;;;;;;;27.30;42.50;;;25.67;45.39;101113.28;12251479;19;19925;-91
2022/08/01 14:30:37;;;;;;;;;;;27.40;42.50;;;25.31;45.45;101053.09;12246156;19;19926;-90
2022/08/01 14:34:39;;;;;;;;;;;27.30;42.50;;;25.78;44.93;101128.94;12251425;19;19940;-90
2022/08/01 14:38:40;;;;;;;;;;;27.40;42.50;;;25.79;45.31;101131.44;12250082;19;20234;-91
2022/08/01 14:42:43;;;;;;;;;;;27.40;42.60;;;25.74;45.45;101119.59;12252398;19;19922;-90
2022/08/01 14:46:46;;;;;;;;;;;27.50;42.70;;;25.80;45.27;101133.09;12251681;19;19919;-90
2022/08/01 14:50:48;;;;;;;;;;;27.40;42.70;;;25.79;45.19;101139.47;12245312;19;19938;-90
2022/08/01 14:54:49;;;;;;;;;;;27.40;42.70;;;25.52;45.31;101087.28;12247800;19;19917;-92
2022/08/01 14:58:51;;;;;;;;;;;27.40;42.60;;;25.75;45.49;101113.22;12253302;19;19915;-92
2022/08/01 15:02:52;;;;;;;;;;;27.40;42.60;;;25.82;45.40;101127.59;12252975;19;19930;-92
2022/08/01 15:06:54;;;;;;;;;;;27.50;42.70;;;25.80;45.10;101113.56;12253599;19;19935;-90
2022/08/01 15:10:56;;;;;;;;;;;27.50;42.70;;;25.63;45.27;101079.84;12250586;19;19931;-92
2022/08/01 15:14:58;;;;;;;;;;;27.50;43.10;;;25.93;45.29;101126.41;12244891;19;19961;-89
2022/08/01 15:18:59;;;;;;;;;;;27.60;42.90;;;25.96;45.35;101132.22;12249554;19;19929;-90
2022/08/01 15:23:00;;;;;;;;;;;27.60;42.60;;;26.04;45.37;101137.53;12247849;19;19914;-90
2022/08/01 15:27:02;;;;;;;;;;;27.70;42.80;;;26.16;45.17;101145.16;12250033;19;19925;-91
2022/08/01 15:31:03;;;;;;;;;;;27.60;42.70;;;26.19;45.36;101134.09;12251916;19;20495;-92
2022/08/01 15:35:06;;;;;;;;;;;27.70;42.70;;;25.97;45.30;101103.63;12252553;19;20291;-91
2022/08/01 15:39:09;;;;;;;;;;;27.80;42.60;;;25.81;45.44;101080.41;12247995;19;19922;-90
2022/08/01 15:43:10;;;;;;;;;;;27.80;42.50;;;26.23;45.52;101146.13;12249721;19;19911;-90
2022/08/01 15:47:12;;;;;;;;;;;27.80;42.50;;;26.11;45.22;101136.81;12257176;19;19922;-91
2022/08/01 15:51:13;;;;;;;;;;;27.80;42.40;;;25.97;45.27;101115.16;12253149;19;20015;-90
2022/08/01 15:55:15;;;;;;;;;;;27.80;42.30;;;26.18;45.21;101156.53;12255397;19;19919;-92
2022/08/01 15:59:16;;;;;;;;;;;27.80;42.70;;;25.95;45.44;101114.50;12249861;19;19935;-91
2022/08/01 16:03:18;;;;;;;;;;;27.80;42.30;;;26.19;45.51;101164.41;12250272;19;19921;-90
2022/08/01 16:07:20;;;;;;;;;;;28.00;42.40;;;26.20;45.59;101157.19;12249515;19;19975;-90
2022/08/01 16:11:22;;;;;;;;;;;27.80;42.20;;;26.09;45.44;101146.88;12247181;19;19919;-91
2022/08/01 16:15:24;;;;;;;;;;;27.80;42.10;;;25.77;45.06;101076.44;12243902;19;19922;-91
2022/08/01 16:19:26;;;;;;;;;;;27.80;42.20;;;25.93;45.40;101103.13;12262610;19;19918;-91
2022/08/01 16:23:27;;;;;;;;;;;28.10;42.20;;;26.21;45.42;101148.97;12251619;19;20006;-90
2022/08/01 16:27:32;;;;;;;;;;;27.90;42.10;;;26.33;45.46;101161.94;12259484;19;19922;-90
2022/08/01 16:31:34;;;;;;;;;;;28.00;42.20;;;26.39;45.15;101167.44;12255843;19;19928;-90
2022/08/01 16:35:35;;;;;;;;;;;28.00;42.10;;;26.18;45.24;101127.91;12254510;19;19925;-89
2022/08/01 16:39:37;;;;;;;;;;;28.00;42.00;;;26.39;45.29;101172.78;12254892;19;19918;-89
2022/08/01 16:43:41;;;;;;;;;;;28.00;41.90;;;26.11;45.12;101131.47;12252663;19;19943;-89
2022/08/01 16:47:42;;;;;;;;;;;28.00;41.80;;;26.35;45.22;101171.47;12256913;19;19923;-89
2022/08/01 16:51:44;;;;;;;;;;;28.00;41.80;;;26.32;45.11;101163.78;12259092;19;19915;-88
2022/08/01 16:55:46;;;;;;;;;;;28.10;41.80;;;25.98;44.98;101105.28;12256918;19;19932;-89
2022/08/01 16:59:47;;;;;;;;;;;28.00;41.80;;;25.87;45.05;101085.13;12255631;19;19926;-89
2022/08/01 17:03:49;;;;;;;;;;;28.00;41.80;;;25.90;45.19;101091.97;12255243;19;20366;-90
2022/08/01 17:07:50;;;;;;;;;;;28.00;41.70;;;26.29;45.04;101158.81;12249374;19;19903;-89
2022/08/01 17:11:52;;;;;;;;;;;28.20;41.80;;;26.16;44.99;101139.81;12250698;19;19915;-89
2022/08/01 17:15:53;;;;;;;;;;;28.00;41.60;;;26.12;44.95;101125.13;12252499;19;20522;-89
2022/08/01 17:19:54;;;;;;;;;;;28.00;41.70;;;26.33;44.73;101157.44;12253221;19;19930;-90
2022/08/01 17:23:56;;;;;;;;;;;28.00;41.70;;;26.35;44.90;101160.75;12256215;19;19923;-88
2022/08/01 17:27:58;;;;;;;;;;;28.00;41.70;;;26.07;44.92;101108.75;12261797;19;20079;-89
2022/08/01 17:31:59;;;;;;;;;;;28.10;41.70;;;25.73;44.86;101054.53;12261871;19;19933;-88
2022/08/01 17:36:00;;;;;;;;;;;28.00;41.60;;;26.01;44.83;101099.59;12259719;19;19921;-89
2022/08/01 17:40:03;;;;;;;;;;;28.10;41.60;;;25.72;44.91;101060.09;12253814;19;19918;-90
2022/08/01 17:44:05;;;;;;;;;;;28.10;41.50;;;26.08;44.99;101134.50;12259292;19;19935;-90
2022/08/01 17:48:07;;;;;;;;;;;28.10;41.50;;;25.80;44.75;101097.50;12255160;19;19928;-90
2022/08/01 17:52:08;;;;;;;;;;;28.00;41.50;;;25.89;44.94;101114.38;12256376;19;20727;-89
2022/08/01 17:56:10;;;;;;;;;;;27.90;41.50;;;25.86;44.57;101110.19;12244250;19;19926;-88
2022/08/01 18:00:12;;;;;;;;;;;27.90;41.80;;;25.87;44.75;101119.06;12232263;19;20285;-90
2022/08/01 18:04:13;;;;;;;;;;;28.00;41.40;;;25.85;44.65;101123.75;12234636;19;20277;-89
2022/08/01 18:08:14;;;;;;;;;;;27.90;41.50;;;25.67;45.01;101095.38;12249107;19;19923;-89
2022/08/01 18:12:16;;;;;;;;;;;27.90;41.40;;;25.74;44.88;101115.09;12249825;19;20269;-88